Time;durP1;ratioP1;P1;durP2;ratioP2;P2;SDS_P1;SDS_P2;PMS_P1;PMS_P2;Temp;Humidity;BMP_temperature;BMP_pressure;BME280_temperature;BME280_humidity;BME280_pressure;Samples;Min_cycle;Max_cycle;Signal;HPM_P1;HPM_P2
2022/12/22 03:26:06;;;;;;;;;;;;;;;-143.57;100.00;51354.66;5059895;28;19932;-60
2022/12/22 03:28:33;;;;;;;;;;;;;;;-143.57;100.00;51326.84;5057775;28;20028;-60
2022/12/22 03:31:01;;;;;;;;;;;;;;;-143.57;100.00;51338.78;5058730;28;20198;-60
2022/12/22 03:33:28;;;;;;;;;;;;;;;-143.57;100.00;51354.66;5057141;28;21129;-59
2022/12/22 03:35:55;;;;;;;;;;;;;;;-143.57;100.00;51346.72;5060398;28;20018;-59
2022/12/22 03:38:22;;;;;;;;;;;;;;;-143.57;100.00;51354.66;5057546;28;19933;-59
2022/12/22 03:40:48;;;;;;;;;;;;;;;-143.57;100.00;51338.78;5058695;28;19971;-59
2022/12/22 03:46:29;;;;;;;;;;;;;;;-143.57;100.00;51370.56;5057869;28;19932;-59
2022/12/22 03:49:10;;;;;;;;;;;;;;;-143.57;100.00;51336.78;5055972;28;19929;-59
2022/12/22 03:51:42;;;;;;;;;;;;;;;-143.57;100.00;51350.69;5058056;28;19929;-59
2022/12/22 03:54:10;;;;;;;;;;;;;;;-143.57;100.00;51386.47;5054850;28;20011;-59
2022/12/22 03:56:37;;;;;;;;;;;;;;;-143.57;100.00;51346.72;5057567;28;19956;-59
2022/12/22 03:59:03;;;;;;;;;;;;;;;-143.57;100.00;51362.63;5057775;28;20730;-59
2022/12/22 04:01:30;;;;;;;;;;;;;;;-143.57;100.00;51350.69;5057283;28;19932;-59
2022/12/22 04:03:57;;;;;;;;;;;;;;;-143.57;100.00;51388.47;5054906;28;19936;-59
2022/12/22 04:06:24;;;;;;;;;;;;;;;-143.57;100.00;51310.94;5055703;28;19990;-59
2022/12/22 04:08:51;;;;;;;;;;;;;;;-143.57;100.00;51354.66;5059923;28;20046;-60
2022/12/22 04:14:03;;;;;;;;;;;;;;;-143.57;100.00;51328.81;5055637;28;20607;-61
2022/12/22 04:16:31;;;;;;;;;;;;;;;-143.57;100.00;51380.50;5056030;28;19924;-60
2022/12/22 04:18:58;;;;;;;;;;;;;;;-143.57;100.00;51330.81;5057650;28;19932;-61
2022/12/22 04:21:25;;;;;;;;;;;;;;;-143.57;100.00;51360.63;5054959;28;19932;-60
2022/12/22 04:23:52;;;;;;;;;;;;;;;-143.57;100.00;51346.72;5059344;28;20624;-60
2022/12/22 04:26:19;;;;;;;;;;;;;;;-143.57;100.00;51346.72;5057026;28;19947;-60
2022/12/22 04:28:46;;;;;;;;;;;;;;;-143.57;100.00;51318.88;5057421;28;20422;-61
2022/12/22 04:31:12;;;;;;;;;;;;;;;-143.57;100.00;51340.75;5056343;28;19921;-60
2022/12/22 04:33:39;;;;;;;;;;;;;;;-143.57;100.00;51346.72;5057413;28;20388;-60
2022/12/22 04:36:06;;;;;;;;;;;;;;;-143.57;100.00;51342.75;5057810;28;20535;-60
2022/12/22 04:38:33;;;;;;;;;;;;;;;-143.57;100.00;51378.53;5056367;28;20010;-60
2022/12/22 04:41:00;;;;;;;;;;;;;;;-143.57;100.00;51358.66;5060550;28;20695;-60
2022/12/22 04:43:26;;;;;;;;;;;;;;;-143.57;100.00;51366.59;5056648;28;19928;-60
2022/12/22 04:45:53;;;;;;;;;;;;;;;-143.57;100.00;51368.59;5059257;28;21295;-60
2022/12/22 04:48:20;;;;;;;;;;;;;;;-143.57;100.00;51324.84;5057268;28;19929;-60
2022/12/22 04:50:50;;;;;;;;;;;;;;;-143.57;100.00;51342.75;5059396;28;19928;-60
2022/12/22 04:53:17;;;;;;;;;;;;;;;-143.57;100.00;51338.78;5055976;28;20526;-60
2022/12/22 04:55:45;;;;;;;;;;;;;;;-143.57;100.00;51346.72;5059160;28;19974;-61
2022/12/22 04:58:12;;;;;;;;;;;;;;;-143.57;100.00;51344.72;5056450;28;20609;-61
2022/12/22 05:00:39;;;;;;;;;;;;;;;-143.57;100.00;51350.69;5057230;28;19925;-60
2022/12/22 05:03:06;;;;;;;;;;;;;;;-143.57;100.00;51330.81;5057604;28;20519;-60
2022/12/22 05:05:33;;;;;;;;;;;;;;;-143.57;100.00;51334.78;5056979;28;19932;-60
2022/12/22 05:08:00;;;;;;;;;;;;;;;-143.57;100.00;51370.56;5055977;28;19929;-60
2022/12/22 05:10:27;;;;;;;;;;;;;;;-143.57;100.00;51332.81;5056026;28;20466;-60
2022/12/22 05:12:53;;;;;;;;;;;;;;;-143.57;100.00;51324.84;5059846;28;19924;-61
2022/12/22 05:15:21;;;;;;;;;;;;;;;-143.57;100.00;51306.97;5053136;28;20692;-60
2022/12/22 05:17:47;;;;;;;;;;;;;;;-143.57;100.00;51370.56;5057496;28;20018;-60
2022/12/22 05:20:14;;;;;;;;;;;;;;;-143.57;100.00;51346.72;5053556;28;20019;-60
2022/12/22 05:22:41;;;;;;;;;;;;;;;-143.57;100.00;51338.78;5057295;28;20434;-60
2022/12/22 05:25:08;;;;;;;;;;;;;;;-143.57;100.00;51362.63;5053746;28;19928;-61
2022/12/22 05:27:35;;;;;;;;;;;;;;;-143.57;100.00;51366.59;5057908;28;21079;-61
2022/12/22 05:30:02;;;;;;;;;;;;;;;-143.57;100.00;51358.66;5059249;28;20647;-61
2022/12/22 05:32:31;;;;;;;;;;;;;;;-143.57;100.00;51322.88;5059219;28;19925;-61
2022/12/22 05:34:58;;;;;;;;;;;;;;;-143.57;100.00;51346.72;5061453;28;19925;-61
2022/12/22 05:37:25;;;;;;;;;;;;;;;-143.57;100.00;51354.66;5041161;28;20620;-60
2022/12/22 05:39:52;;;;;;;;;;;;;;;-143.57;100.00;51324.84;5060205;28;19958;-61
2022/12/22 05:42:34;;;;;;;;;;;;;;;-143.57;100.00;51350.69;5056893;28;19932;-60
2022/12/22 05:45:02;;;;;;;;;;;;;;;-143.57;100.00;51358.66;5061655;28;19936;-60
2022/12/22 05:47:29;;;;;;;;;;;;;;;-143.57;100.00;51354.66;5056043;28;19960;-60
2022/12/22 05:49:56;;;;;;;;;;;;;;;-143.57;100.00;51338.78;5061699;28;19930;-60
2022/12/22 05:52:22;;;;;;;;;;;;;;;-143.57;100.00;51320.88;5058254;28;19947;-60
2022/12/22 05:54:49;;;;;;;;;;;;;;;-143.57;100.00;51378.53;5059441;28;20374;-61
2022/12/22 05:57:15;;;;;;;;;;;;;;;-143.57;100.00;51326.84;5057802;28;19928;-61
2022/12/22 05:59:42;;;;;;;;;;;;;;;-143.57;100.00;51342.75;5059662;28;19928;-61
2022/12/22 06:02:09;;;;;;;;;;;;;;;-143.57;100.00;51330.81;5057081;28;20611;-61
2022/12/22 06:04:36;;;;;;;;;;;;;;;-143.57;100.00;51354.66;5056837;28;19971;-60
2022/12/22 06:07:02;;;;;;;;;;;;;;;-143.57;100.00;51396.41;5062160;28;19981;-62
2022/12/22 06:09:29;;;;;;;;;;;;;;;-143.57;100.00;51370.56;5055728;28;19931;-61
2022/12/22 06:11:55;;;;;;;;;;;;;;;-143.57;100.00;51303.00;5059529;28;19935;-61
2022/12/22 06:14:22;;;;;;;;;;;;;;;-143.57;100.00;51340.75;5053949;28;19924;-61
2022/12/22 06:16:49;;;;;;;;;;;;;;;-143.57;100.00;51318.88;5058350;28;19960;-61
2022/12/22 06:19:15;;;;;;;;;;;;;;;-143.57;100.00;51346.72;5055470;28;20675;-61
2022/12/22 06:21:42;;;;;;;;;;;;;;;-143.57;100.00;51382.50;5057971;28;20043;-61
2022/12/22 06:24:08;;;;;;;;;;;;;;;-143.57;100.00;51366.59;5057599;28;19928;-61
2022/12/22 06:26:35;;;;;;;;;;;;;;;-143.57;100.00;51346.72;5058221;28;20027;-62
2022/12/22 06:29:02;;;;;;;;;;;;;;;-143.57;100.00;51362.63;5057287;28;20335;-62
2022/12/22 06:31:28;;;;;;;;;;;;;;;-143.57;100.00;51366.59;5056053;28;19932;-62
2022/12/22 06:33:55;;;;;;;;;;;;;;;-143.57;100.00;51350.69;5057716;28;20005;-61
2022/12/22 06:36:22;;;;;;;;;;;;;;;-143.57;100.00;51346.72;5056952;28;19935;-61
2022/12/22 06:38:48;;;;;;;;;;;;;;;-143.57;100.00;51366.59;5062585;28;19929;-61
2022/12/22 06:43:07;;;;;;;;;;;;;;;-143.57;100.00;51362.63;5056457;28;19990;-61
2022/12/22 06:44:01;;;;;;;;;;;;;;;-143.57;100.00;51326.84;5060772;28;19938;-61
2022/12/22 06:46:28;;;;;;;;;;;;;;;-143.57;100.00;51338.78;5056554;28;19932;-61
2022/12/22 06:48:55;;;;;;;;;;;;;;;-143.57;100.00;51370.56;5060257;28;19990;-61
2022/12/22 06:51:21;;;;;;;;;;;;;;;-143.57;100.00;51370.56;5055939;28;20021;-61
2022/12/22 06:53:48;;;;;;;;;;;;;;;-143.57;100.00;51358.66;5062223;28;19928;-60
2022/12/22 06:56:15;;;;;;;;;;;;;;;-143.57;100.00;51360.63;5056767;28;20595;-60
2022/12/22 06:58:41;;;;;;;;;;;;;;;-143.57;100.00;51326.84;5055321;28;20033;-61
2022/12/22 07:01:08;;;;;;;;;;;;;;;-143.57;100.00;51338.78;5056486;28;19959;-61
2022/12/22 07:03:34;;;;;;;;;;;;;;;-143.57;100.00;51330.81;5061049;28;19928;-60
2022/12/22 07:06:01;;;;;;;;;;;;;;;-143.57;100.00;51356.66;5056260;28;19933;-59
2022/12/22 07:08:28;;;;;;;;;;;;;;;-143.57;100.00;51334.78;5057187;28;19928;-60
2022/12/22 07:10:57;;;;;;;;;;;;;;;-143.57;100.00;51378.53;5061508;28;19938;-61
2022/12/22 07:13:26;;;;;;;;;;;;;;;-143.57;100.00;51342.75;5056222;28;20509;-61
2022/12/22 07:15:53;;;;;;;;;;;;;;;-143.57;100.00;51332.81;5056540;28;19939;-61
2022/12/22 07:18:31;;;;;;;;;;;;;;;-143.57;100.00;51368.59;5056341;28;19925;-61
2022/12/22 07:20:58;;;;;;;;;;;;;;;-143.57;100.00;51386.47;5060017;28;19929;-61
2022/12/22 07:23:25;;;;;;;;;;;;;;;-143.57;100.00;51346.72;5055998;28;20015;-61
2022/12/22 07:25:52;;;;;;;;;;;;;;;-143.57;100.00;51364.63;5057185;28;19935;-61
2022/12/22 07:28:19;;;;;;;;;;;;;;;-143.57;100.00;51358.66;5054116;28;20025;-61
2022/12/22 07:30:48;;;;;;;;;;;;;;;-143.57;100.00;51360.63;5058107;28;19938;-61
2022/12/22 07:33:15;;;;;;;;;;;;;;;-143.57;100.00;51338.78;5055610;28;19964;-61
2022/12/22 07:35:41;;;;;;;;;;;;;;;-143.57;100.00;51370.56;5058433;28;19929;-61
2022/12/22 07:38:08;;;;;;;;;;;;;;;-143.57;100.00;51358.66;5055309;28;20696;-61
2022/12/22 07:40:35;;;;;;;;;;;;;;;-143.57;100.00;51354.66;5057356;28;19924;-62
2022/12/22 07:43:07;;;;;;;;;;;;;;;-143.57;100.00;51314.91;5059427;28;19963;-61
2022/12/22 07:45:34;;;;;;;;;;;;;;;-143.57;100.00;51334.78;5059990;28;19947;-61
2022/12/22 07:50:23;;;;;;;;;;;;;;;-143.57;100.00;51362.63;5058555;28;20688;-61
2022/12/22 07:50:48;;;;;;;;;;;;;;;-143.57;100.00;51366.59;5058420;28;19936;-61
2022/12/22 07:53:14;;;;;;;;;;;;;;;-143.57;100.00;51370.56;5059565;28;19920;-62
2022/12/22 07:55:41;;;;;;;;;;;;;;;-143.57;100.00;51390.47;5055552;28;19924;-62
2022/12/22 07:58:07;;;;;;;;;;;;;;;-143.57;100.00;51303.00;5058212;28;19936;-61
2022/12/22 08:00:34;;;;;;;;;;;;;;;-143.57;100.00;51326.84;5056299;28;19931;-62
2022/12/22 08:03:01;;;;;;;;;;;;;;;-143.57;100.00;51354.66;5060009;28;19935;-61
2022/12/22 08:05:28;;;;;;;;;;;;;;;-143.57;100.00;51370.56;5056245;28;20469;-61
2022/12/22 08:07:55;;;;;;;;;;;;;;;-143.57;100.00;51326.84;5059374;28;20382;-60
2022/12/22 08:10:21;;;;;;;;;;;;;;;-143.57;100.00;51344.72;5056797;28;19971;-61
2022/12/22 08:12:48;;;;;;;;;;;;;;;-143.57;100.00;51330.81;5057664;28;19932;-62
2022/12/22 08:15:14;;;;;;;;;;;;;;;-143.57;100.00;51370.56;5055460;28;19932;-61
2022/12/22 08:17:41;;;;;;;;;;;;;;;-143.57;100.00;51374.56;5057031;28;19940;-61
2022/12/22 08:20:08;;;;;;;;;;;;;;;-143.57;100.00;51342.75;5055835;28;19932;-62
2022/12/22 08:22:35;;;;;;;;;;;;;;;-143.57;100.00;51326.84;5055940;28;19993;-62
2022/12/22 08:25:01;;;;;;;;;;;;;;;-143.57;100.00;51326.84;5059598;28;19928;-61
2022/12/22 08:27:48;;;;;;;;;;;;;;;-143.57;100.00;51358.66;5054666;28;19932;-62
2022/12/22 08:30:15;;;;;;;;;;;;;;;-143.57;100.00;51318.88;5057102;28;19925;-61
2022/12/22 08:32:42;;;;;;;;;;;;;;;-143.57;100.00;51330.81;5055991;28;20005;-62
2022/12/22 08:35:09;;;;;;;;;;;;;;;-143.57;100.00;51394.44;5058685;28;20523;-62
2022/12/22 08:37:40;;;;;;;;;;;;;;;-143.57;100.00;51346.72;5054785;28;19932;-63
2022/12/22 08:40:09;;;;;;;;;;;;;;;-143.57;100.00;51378.53;5058036;28;19974;-61
2022/12/22 08:42:36;;;;;;;;;;;;;;;-143.57;100.00;51362.63;5055729;28;20019;-62
2022/12/22 08:45:07;;;;;;;;;;;;;;;-143.57;100.00;51374.56;5057413;28;20379;-62
2022/12/22 08:47:34;;;;;;;;;;;;;;;-143.57;100.00;51354.66;5055917;28;20700;-62
2022/12/22 08:50:01;;;;;;;;;;;;;;;-143.57;100.00;51318.88;5057052;28;19928;-62
2022/12/22 08:52:27;;;;;;;;;;;;;;;-143.57;100.00;51414.31;5056505;28;19932;-62
2022/12/22 08:54:54;;;;;;;;;;;;;;;-143.57;100.00;51370.56;5057457;28;19932;-62
2022/12/22 08:57:20;;;;;;;;;;;;;;;-143.57;100.00;51318.88;5058242;28;19925;-62
2022/12/22 08:59:47;;;;;;;;;;;;;;;-143.57;100.00;51344.72;5054204;28;19955;-62
2022/12/22 09:02:14;;;;;;;;;;;;;;;-143.57;100.00;51374.56;5057411;28;19967;-62
2022/12/22 09:04:40;;;;;;;;;;;;;;;-143.57;100.00;51378.53;5055565;28;19932;-62
2022/12/22 09:07:07;;;;;;;;;;;;;;;-143.57;100.00;51366.59;5059594;28;19982;-62
2022/12/22 09:09:34;;;;;;;;;;;;;;;-143.57;100.00;51330.81;5054221;28;20007;-63
2022/12/22 09:12:01;;;;;;;;;;;;;;;-143.57;100.00;51346.72;5058917;28;19932;-62
2022/12/22 09:14:29;;;;;;;;;;;;;;;-143.57;100.00;51378.53;5055908;28;20530;-62
2022/12/22 09:16:56;;;;;;;;;;;;;;;-143.57;100.00;51362.63;5053279;28;19936;-62
2022/12/22 09:19:22;;;;;;;;;;;;;;;-143.57;100.00;51374.56;5056125;28;19932;-63
2022/12/22 09:21:49;;;;;;;;;;;;;;;-143.57;100.00;51398.41;5055265;28;19964;-63
2022/12/22 09:24:16;;;;;;;;;;;;;;;-143.57;100.00;51386.47;5054784;28;20392;-63
2022/12/22 09:26:43;;;;;;;;;;;;;;;-143.57;100.00;51326.84;5058343;28;19929;-62
2022/12/22 09:29:10;;;;;;;;;;;;;;;-143.57;100.00;51338.78;5058183;28;19932;-63
2022/12/22 09:31:36;;;;;;;;;;;;;;;-143.57;100.00;51354.66;5055647;28;19925;-60
2022/12/22 09:34:03;;;;;;;;;;;;;;;-143.57;100.00;51366.59;5057330;28;20447;-62
2022/12/22 09:36:30;;;;;;;;;;;;;;;-143.57;100.00;51366.59;5054926;28;20006;-60
2022/12/22 09:38:57;;;;;;;;;;;;;;;-143.57;100.00;51362.63;5058508;28;19928;-62
2022/12/22 09:41:33;;;;;;;;;;;;;;;-143.57;100.00;51366.59;5052193;28;19931;-60
2022/12/22 09:44:04;;;;;;;;;;;;;;;-143.57;100.00;51354.66;5057100;28;19929;-61
2022/12/22 09:46:32;;;;;;;;;;;;;;;-143.57;100.00;51364.63;5054162;28;19943;-61
2022/12/22 09:48:59;;;;;;;;;;;;;;;-143.57;100.00;51378.53;5056006;28;19925;-61
2022/12/22 09:51:26;;;;;;;;;;;;;;;-143.57;100.00;51326.84;5055798;28;19928;-61
2022/12/22 09:53:55;;;;;;;;;;;;;;;-143.57;100.00;51324.84;5055784;28;20512;-60
2022/12/22 09:56:23;;;;;;;;;;;;;;;-143.57;100.00;51334.78;5057486;28;19970;-61
2022/12/22 09:58:49;;;;;;;;;;;;;;;-143.57;100.00;51342.75;5054536;28;19989;-61
2022/12/22 10:01:22;;;;;;;;;;;;;;;-143.57;100.00;51386.47;5057101;28;20046;-62
2022/12/22 10:04:00;;;;;;;;;;;;;;;-143.57;100.00;51334.78;5054951;28;19925;-62
2022/12/22 10:06:47;;;;;;;;;;;;;;;-143.57;100.00;51358.66;5057044;28;20450;-62
2022/12/22 10:09:18;;;;;;;;;;;;;;;-143.57;100.00;51378.53;5052963;28;20491;-62
2022/12/22 10:12:05;;;;;;;;;;;;;;;-143.57;100.00;51338.78;5058441;28;19924;-62
2022/12/22 10:14:32;;;;;;;;;;;;;;;-143.57;100.00;51326.84;5059032;28;19929;-62
2022/12/22 10:17:17;;;;;;;;;;;;;;;-143.57;100.00;51362.63;5060544;28;19932;-62
2022/12/22 10:19:44;;;;;;;;;;;;;;;-143.57;100.00;51334.78;5058320;28;19981;-63
2022/12/22 10:22:17;;;;;;;;;;;;;;;-143.57;100.00;51350.69;5062844;28;19924;-62
2022/12/22 10:24:44;;;;;;;;;;;;;;;-143.57;100.00;51362.63;5059990;28;19951;-62
2022/12/22 10:27:10;;;;;;;;;;;;;;;-143.57;100.00;51354.66;5059032;28;20031;-62
2022/12/22 10:29:37;;;;;;;;;;;;;;;-143.57;100.00;51376.53;5058454;28;19928;-62
2022/12/22 10:32:10;;;;;;;;;;;;;;;-143.57;100.00;51362.63;5062096;28;19928;-62
2022/12/22 10:34:56;;;;;;;;;;;;;;;-143.57;100.00;51334.78;5057466;28;21441;-62
2022/12/22 10:37:29;;;;;;;;;;;;;;;-143.57;100.00;51384.50;5059510;28;19928;-62
2022/12/22 10:39:55;;;;;;;;;;;;;;;-143.57;100.00;51352.69;5059810;28;19935;-62
2022/12/22 10:42:22;;;;;;;;;;;;;;;-143.57;100.00;51324.84;5057622;28;19982;-62
2022/12/22 10:44:49;;;;;;;;;;;;;;;-143.57;100.00;51334.78;5059468;28;19986;-62
2022/12/22 10:47:22;;;;;;;;;;;;;;;-143.57;100.00;51346.72;5062945;28;19928;-62
2022/12/22 10:49:53;;;;;;;;;;;;;;;-143.57;100.00;51370.56;5059087;28;20025;-62
2022/12/22 10:52:21;;;;;;;;;;;;;;;-143.57;100.00;51338.78;5058188;28;19974;-63
2022/12/22 10:55:14;;;;;;;;;;;;;;;-143.57;100.00;51336.78;5060037;28;20094;-63
2022/12/22 10:57:41;;;;;;;;;;;;;;;-143.57;100.00;51330.81;5058089;28;19958;-62
2022/12/22 11:00:27;;;;;;;;;;;;;;;-143.57;100.00;51354.66;5061460;28;20023;-62
2022/12/22 11:02:58;;;;;;;;;;;;;;;-143.57;100.00;51384.50;5059371;28;19964;-62
2022/12/22 11:05:25;;;;;;;;;;;;;;;-143.57;100.00;51386.47;5059146;28;19928;-62
2022/12/22 11:07:53;;;;;;;;;;;;;;;-143.57;100.00;51326.84;5055985;28;19928;-63
2022/12/22 11:10:30;;;;;;;;;;;;;;;-143.57;100.00;51358.66;5060721;28;20014;-64
2022/12/22 11:12:59;;;;;;;;;;;;;;;-143.57;100.00;51326.84;5057207;28;20466;-63
2022/12/22 11:15:31;;;;;;;;;;;;;;;-143.57;100.00;51328.81;5056463;28;19931;-62
2022/12/22 11:18:04;;;;;;;;;;;;;;;-143.57;100.00;51374.56;5060058;28;19928;-62
2022/12/22 11:20:38;;;;;;;;;;;;;;;-143.57;100.00;51362.63;5061198;28;19925;-63
2022/12/22 11:23:07;;;;;;;;;;;;;;;-143.57;100.00;51299.00;5056464;28;19929;-62
2022/12/22 11:25:40;;;;;;;;;;;;;;;-143.57;100.00;51350.69;5060687;28;19935;-63
2022/12/22 11:28:06;;;;;;;;;;;;;;;-143.57;100.00;51346.72;5056449;28;19932;-63
2022/12/22 11:30:33;;;;;;;;;;;;;;;-143.57;100.00;51314.91;5056911;28;19936;-63
2022/12/22 11:33:00;;;;;;;;;;;;;;;-143.57;100.00;51350.69;5057718;28;19925;-63
2022/12/22 11:35:44;;;;;;;;;;;;;;;-143.57;100.00;51330.81;5060013;28;20598;-63
2022/12/22 11:38:30;;;;;;;;;;;;;;;-143.57;100.00;51326.84;5056253;28;19935;-63
2022/12/22 11:41:08;;;;;;;;;;;;;;;-143.57;100.00;51356.66;5058005;28;19940;-63
2022/12/22 11:43:50;;;;;;;;;;;;;;;-143.57;100.00;51362.63;5056017;28;20369;-63
2022/12/22 11:46:29;;;;;;;;;;;;;;;-143.57;100.00;51334.78;5055874;28;19928;-63
2022/12/22 11:49:14;;;;;;;;;;;;;;;-143.57;100.00;51374.56;5056825;28;19931;-62
2022/12/22 11:51:47;;;;;;;;;;;;;;;-143.57;100.00;51318.88;5058994;28;19967;-63
2022/12/22 11:54:26;;;;;;;;;;;;;;;-143.57;100.00;51328.81;5056218;28;20629;-63
2022/12/22 11:57:04;;;;;;;;;;;;;;;-143.57;100.00;51318.88;5056860;28;19929;-63
2022/12/22 11:59:39;;;;;;;;;;;;;;;-143.57;100.00;51370.56;5055874;28;21378;-63
2022/12/22 12:02:11;;;;;;;;;;;;;;;-143.57;100.00;51350.69;5059238;28;19931;-63
2022/12/22 12:04:38;;;;;;;;;;;;;;;-143.57;100.00;51354.66;5056365;28;19924;-63
2022/12/22 12:07:16;;;;;;;;;;;;;;;-143.57;65.82;51374.56;5058550;28;20016;-63
2022/12/22 12:10:06;;;;;;;;;;;;;;;-143.57;56.93;51334.78;5056505;28;19958;-63
2022/12/22 12:12:51;;;;;;;;;;;;;;;-143.57;53.74;51374.56;5057980;28;19925;-64
2022/12/22 12:15:26;;;;;;;;;;;;;;;-143.57;48.63;51334.78;5056915;28;19929;-63
2022/12/22 12:18:11;;;;;;;;;;;;;;;-143.57;45.55;51338.78;5056709;28;19928;-63
2022/12/22 12:20:38;;;;;;;;;;;;;;;-143.57;43.24;51338.78;5056430;28;19993;-64
2022/12/22 12:23:06;;;;;;;;;;;;;;;-143.57;41.32;51320.88;5057450;28;20007;-64
2022/12/22 12:25:32;;;;;;;;;;;;;;;-143.57;39.02;51312.94;5058727;28;20410;-64
2022/12/22 12:28:05;;;;;;;;;;;;;;;-143.57;37.79;51358.66;5056448;28;19936;-64
2022/12/22 12:30:35;;;;;;;;;;;;;;;-143.57;36.08;51295.03;5059489;28;19967;-66
2022/12/22 12:33:14;;;;;;;;;;;;;;;-143.57;34.99;51318.88;5056065;28;19924;-64
2022/12/22 12:35:59;;;;;;;;;;;;;;;-143.57;34.07;51306.97;5054910;28;19928;-65
2022/12/22 12:38:32;;;;;;;;;;;;;;;-143.57;33.55;51295.03;5057323;28;20036;-62
2022/12/22 12:41:29;;;;;;;;;;;;;;;-143.57;32.52;51310.94;5054556;28;19925;-62
2022/12/22 12:43:57;;;;;;;;;;;;;;;-143.57;31.92;51310.94;5055706;28;19937;-62
2022/12/22 12:46:39;;;;;;;;;;;;;;;-143.57;32.83;51310.94;5058803;28;19927;-63
2022/12/22 12:49:25;;;;;;;;;;;;;;;-143.57;32.17;51340.75;5055961;28;20339;-62
2022/12/22 12:51:53;;;;;;;;;;;;;;;-143.57;33.13;51295.03;5058468;28;19952;-62
2022/12/22 12:54:21;;;;;;;;;;;;;;;-143.57;32.66;51318.88;5055876;28;19939;-62
2022/12/22 12:56:57;;;;;;;;;;;;;;;-143.57;32.02;51314.91;5059102;28;20510;-63
2022/12/22 12:59:47;;;;;;;;;;;;;;;-143.57;31.82;51289.06;5054002;28;19950;-62
2022/12/22 13:02:26;;;;;;;;;;;;;;;-143.57;31.46;51314.91;5051096;28;19928;-63
2022/12/22 13:05:11;;;;;;;;;;;;;;;-143.57;30.27;51273.16;5055617;28;19925;-63
2022/12/22 13:07:57;;;;;;;;;;;;;;;-143.57;30.27;51301.00;5058150;28;20558;-63
2022/12/22 13:10:24;;;;;;;;;;;;;;;-143.57;30.01;51330.81;5054203;28;19933;-63
2022/12/22 13:12:52;;;;;;;;;;;;;;;-143.57;30.69;51342.75;5058154;28;19928;-62
2022/12/22 13:15:35;;;;;;;;;;;;;;;-143.57;30.43;51285.09;5055758;28;20015;-63
2022/12/22 13:18:07;;;;;;;;;;;;;;;-143.57;31.14;51303.00;5054710;28;19968;-64
2022/12/22 13:20:35;;;;;;;;;;;;;;;-143.57;31.00;51263.22;5056442;28;20240;-64
2022/12/22 13:23:09;;;;;;;;;;;;;;;-143.57;32.05;51346.72;5056647;28;19925;-68
2022/12/22 13:25:47;;;;;;;;;;;;;;;-143.57;32.48;51285.09;5058037;28;19929;-64
2022/12/22 13:28:15;;;;;;;;;;;;;;;-143.57;32.00;51310.94;5054676;28;19929;-64
2022/12/22 13:30:46;;;;;;;;;;;;;;;-143.57;32.27;51318.88;5055833;28;19924;-64
2022/12/22 13:33:15;;;;;;;;;;;;;;;-143.57;32.83;51287.09;5057354;28;19977;-64
2022/12/22 13:35:41;;;;;;;;;;;;;;;-143.57;33.03;51314.91;5054464;28;19985;-64
2022/12/22 13:38:32;;;;;;;;;;;;;;;-143.57;33.29;51295.03;5054640;28;20005;-64
2022/12/22 13:40:59;;;;;;;;;;;;;;;-143.57;34.41;51318.88;5055245;28;20358;-64
2022/12/22 13:43:27;;;;;;;;;;;;;;;-143.57;34.94;51314.91;5055285;28;20032;-64
2022/12/22 13:45:56;;;;;;;;;;;;;;;-143.57;36.06;51318.88;5050987;28;20474;-63
2022/12/22 13:48:41;;;;;;;;;;;;;;;-143.57;36.03;51295.03;5051293;28;20480;-64
2022/12/22 13:51:21;;;;;;;;;;;;;;;-143.57;36.80;51346.72;5056357;28;20374;-63
2022/12/22 13:53:50;;;;;;;;;;;;;;;-143.57;36.82;51338.78;5061491;28;19925;-64
2022/12/22 13:56:40;;;;;;;;;;;;;;;-143.57;36.47;51326.84;5054570;28;19924;-62
2022/12/22 13:59:26;;;;;;;;;;;;;;;-143.57;37.14;51378.53;5059584;28;19932;-62
2022/12/22 14:01:59;;;;;;;;;;;;;;;-143.57;37.80;51299.00;5059034;28;19931;-62
2022/12/22 14:04:27;;;;;;;;;;;;;;;-143.57;37.72;51310.94;5058102;28;20506;-64
2022/12/22 14:06:54;;;;;;;;;;;;;;;-143.57;37.28;51326.84;5059243;28;20017;-64
2022/12/22 14:09:25;;;;;;;;;;;;;;;-143.57;37.58;51318.88;5057969;28;20660;-64
2022/12/22 14:12:01;;;;;;;;;;;;;;;-143.57;37.35;51295.03;5059853;28;19924;-64
2022/12/22 14:14:30;;;;;;;;;;;;;;;-143.57;37.17;51324.84;5057294;28;19955;-64
2022/12/22 14:16:59;;;;;;;;;;;;;;;-143.57;37.92;51334.78;5057453;28;20428;-65
2022/12/22 14:19:29;;;;;;;;;;;;;;;-143.57;38.38;51330.81;5057868;28;19985;-64
2022/12/22 14:22:07;;;;;;;;;;;;;;;-143.57;39.38;51314.91;5062737;28;20403;-64
2022/12/22 14:24:54;;;;;;;;;;;;;;;-143.57;40.64;51306.97;5058276;28;19935;-64
2022/12/22 14:27:34;;;;;;;;;;;;;;;-143.57;42.27;51324.84;5060354;28;19929;-64
2022/12/22 14:30:01;;;;;;;;;;;;;;;-143.57;42.64;51291.06;5058993;28;19935;-64
2022/12/22 14:32:39;;;;;;;;;;;;;;;-143.57;42.88;51291.06;5062357;28;19931;-64
2022/12/22 14:35:15;;;;;;;;;;;;;;;-143.57;43.62;51303.00;5059062;28;20334;-65
2022/12/22 14:37:42;;;;;;;;;;;;;;;-143.57;44.58;51303.00;5062027;28;19928;-64
2022/12/22 14:40:27;;;;;;;;;;;;;;;-143.57;45.39;51299.00;5058002;28;20022;-64
2022/12/22 14:42:55;;;;;;;;;;;;;;;-143.57;47.85;51299.00;5060607;28;19932;-63
2022/12/22 14:45:22;;;;;;;;;;;;;;;-143.57;48.39;51299.00;5058401;28;19925;-64
2022/12/22 14:47:50;;;;;;;;;;;;;;;-143.57;49.98;51310.94;5059575;28;19964;-63
2022/12/22 14:50:18;;;;;;;;;;;;;;;-143.57;51.50;51295.03;5055732;28;20046;-63
2022/12/22 14:52:45;;;;;;;;;;;;;;;-143.57;52.64;51316.91;5056893;28;20019;-63
2022/12/22 14:55:20;;;;;;;;;;;;;;;-143.57;54.31;51312.94;5061339;28;19928;-63
2022/12/22 14:57:50;;;;;;;;;;;;;;;-143.57;54.57;51346.72;5055570;28;19928;-63
2022/12/22 15:00:23;;;;;;;;;;;;;;;-143.57;54.64;51314.91;5060695;28;19959;-64
2022/12/22 15:02:57;;;;;;;;;;;;;;;-143.57;54.80;51336.78;5055874;28;20771;-64
2022/12/22 15:05:28;;;;;;;;;;;;;;;-143.57;55.08;51318.88;5060734;28;19925;-64
2022/12/22 15:07:56;;;;;;;;;;;;;;;-143.57;56.53;51316.91;5056957;28;20691;-63
2022/12/22 15:10:42;;;;;;;;;;;;;;;-143.57;58.38;51336.78;5063206;28;19956;-63
2022/12/22 15:13:17;;;;;;;;;;;;;;;-143.57;59.45;51354.66;5056780;28;19932;-63
2022/12/22 15:15:43;;;;;;;;;;;;;;;-143.57;60.27;51338.78;5055218;28;19924;-63
2022/12/22 15:18:12;;;;;;;;;;;;;;;-143.57;62.62;51322.88;5058652;28;19968;-64
2022/12/22 15:20:39;;;;;;;;;;;;;;;-143.57;64.38;51342.75;5057820;28;19964;-63
2022/12/22 15:23:11;;;;;;;;;;;;;;;-143.57;65.02;51314.91;5055890;28;19932;-63
2022/12/22 15:25:38;;;;;;;;;;;;;;;-143.57;66.95;51342.75;5060533;28;19929;-64
2022/12/22 15:28:04;;;;;;;;;;;;;;;-143.57;69.23;51318.88;5057884;28;19924;-63
2022/12/22 15:30:31;;;;;;;;;;;;;;;-143.57;72.76;51306.97;5060943;28;20018;-63
2022/12/22 15:32:57;;;;;;;;;;;;;;;-143.57;75.38;51314.91;5059396;28;19931;-64
2022/12/22 15:35:28;;;;;;;;;;;;;;;-143.57;76.78;51338.78;5059290;28;20001;-63
2022/12/22 15:37:54;;;;;;;;;;;;;;;-143.57;77.78;51308.94;5061346;28;19928;-64
2022/12/22 15:40:22;;;;;;;;;;;;;;;-143.57;82.19;51291.06;5057628;28;19962;-63
2022/12/22 15:42:49;;;;;;;;;;;;;;;-143.57;82.91;51326.84;5059611;28;19974;-63
2022/12/22 15:45:16;;;;;;;;;;;;;;;-143.57;84.23;51330.81;5059085;28;20486;-63
2022/12/22 15:47:46;;;;;;;;;;;;;;;-143.57;85.33;51303.00;5064203;28;19946;-64
2022/12/22 15:50:24;;;;;;;;;;;;;;;-143.57;89.89;51334.78;5061868;28;19929;-63
2022/12/22 15:52:52;;;;;;;;;;;;;;;-143.57;91.76;51328.81;5067010;28;19932;-62
2022/12/22 15:55:19;;;;;;;;;;;;;;;-143.57;95.25;51318.88;5063929;28;19964;-61
2022/12/22 15:57:48;;;;;;;;;;;;;;;-143.57;100.00;51295.03;5066698;28;19940;-64
2022/12/22 16:00:15;;;;;;;;;;;;;;;-143.57;100.00;51318.88;5062501;28;19944;-62
2022/12/22 16:02:41;;;;;;;;;;;;;;;-143.57;100.00;51324.84;5066117;28;19946;-63
2022/12/22 16:05:09;;;;;;;;;;;;;;;-143.57;100.00;51308.94;5061333;28;19928;-62
2022/12/22 16:07:37;;;;;;;;;;;;;;;-143.57;100.00;51330.81;5063430;28;19928;-63